• Join FlightAware (Why Join?)
  • Login
  • US Flag 
10:12PM EDT


 

Airport Tracker/Info


-or-


 

Live Flight TrackerFlight Track Log ✈ N779NC ✈ 28-Jun-2013 ✈ KATL - KORD

Flight Track Log - Related Links

Times and Time Zones

All times are in EDT time to prevent confusion due to time zone crossing. See the N779NC flight status page for this flight to view local times or setup timezone preferences in your user account.

Time Position Orientation Groundspeed Altitude Reporting Facility
EDT Latitude Longitude Course Direction KTS MPH feet Rate Location/Type
07:01PM 33.6500 -84.4667 349° North 168 193 2,500  Level Atlanta TRACON
07:02PM 33.6667 -84.5500 284° West 256 295 4,200 2,160 Climbing Atlanta TRACON
07:03PM 33.7333 -84.5833 337° Northwest 271 312 7,100 2,460 Climbing Atlanta TRACON
07:04PM 33.8167 -84.5833 360° North 285 328 9,400 1,560 Climbing Atlanta TRACON
07:05PM 33.9036 -84.5869 358° North 311 358 10,500 1,080 Climbing Atlanta Center
07:06PM 33.9975 -84.6050 351° North 323 372 11,600 1,500 Climbing Atlanta Center
07:07PM 34.2425 -84.5763 349° North  Level FlightAware Approximate
07:07PM 34.0933 -84.6283 349° North 346 398 13,500  Level Atlanta Center
07:08PM 34.1956 -84.6492 350° North 365 420 15,100 1,380 Climbing Atlanta Center
07:09PM 34.2894 -84.6700 350° North 375 432 16,300 1,260 Climbing Atlanta Center
07:10PM 34.4000 -84.6858 353° North 389 448 17,700 1,500 Climbing Atlanta Center
07:11PM 34.5125 -84.7042 352° North 398 458 19,400 1,500 Climbing Atlanta Center
07:12PM 34.6250 -84.7278 350° North 404 465 20,700 1,200 Climbing Atlanta Center
07:13PM 34.7333 -84.7517 350° North 404 465 21,900 1,200 Climbing Atlanta Center
07:14PM 34.8503 -84.7728 352° North 414 476 23,100 1,020 Climbing Atlanta Center
07:15PM 34.9692 -84.7839 356° North 419 482 24,000 960 Climbing Atlanta Center
07:16PM 35.0881 -84.7672 North 419 482 25,100 900 Climbing Atlanta Center
07:17PM 35.2072 -84.7428 10° North 426 490 25,900 660 Climbing Atlanta Center
07:18PM 35.3325 -84.7261 North 431 496 26,500 600 Climbing Atlanta Center
07:19PM 35.4556 -84.7219 North 436 502 27,200 660 Climbing Atlanta Center
07:20PM 35.5700 -84.7767 339° North 436 502 27,900 360 Climbing Atlanta Center
07:21PM 35.6886 -84.8211 343° North 436 502 28,000  Climbing Atlanta Center
07:22PM 35.8156 -84.8736 341° North 436 502 28,000  Level Atlanta Center
07:23PM 35.9156 -84.9128 342° North 449 517 28,000  Level Indianapolis Center
07:24PM 36.0331 -84.9525 345° North 445 512 28,000  Level Indianapolis Center
07:25PM 36.1492 -85.0014 341° North 442 509 28,000 240 Level Indianapolis Center
07:26PM 36.2689 -85.0419 345° North 445 512 28,600 900 Climbing Indianapolis Center
07:27PM 36.4117 -85.0831 347° North 441 507 29,900 1,140 Climbing Indianapolis Center
07:28PM 36.5269 -85.1247 344° North 432 497 31,000 840 Climbing Indianapolis Center
07:29PM 36.6422 -85.1572 347° North 427 491 31,700 660 Climbing Indianapolis Center
07:31PM 36.7575 -85.1922 346° North 426 490 32,400 600 Climbing Indianapolis Center
07:32PM 36.8700 -85.2344 343° North 423 487 33,000 480 Climbing Indianapolis Center
07:33PM 36.9853 -85.2675 347° North 423 487 33,500 480 Climbing Indianapolis Center
07:34PM 37.1158 -85.2919 352° North 427 491 34,000 240 Climbing Indianapolis Center
07:35PM 37.2314 -85.3253 347° North 424 488 34,000  Level Indianapolis Center
07:36PM 37.3475 -85.3542 349° North 425 489 34,000  Level Indianapolis Center
07:37PM 37.4667 -85.3758 352° North 429 494 34,000  Level Indianapolis Center
07:38PM 37.5822 -85.4086 347° North 426 490 34,000  Level Indianapolis Center
07:39PM 37.6956 -85.4428 347° North 420 483 34,000  Level Indianapolis Center
07:40PM 37.8344 -85.4711 351° North 430 495 34,000  Level Indianapolis Center
07:41PM 37.9558 -85.5033 348° North 432 497 34,000  Level Indianapolis Center
07:42PM 38.0717 -85.5422 345° North 431 496 34,000  Level Indianapolis Center
07:43PM 38.1906 -85.5728 349° North 434 499 34,000  Level Indianapolis Center
07:44PM 38.3125 -85.5781 358° North 443 510 34,000  Level Indianapolis Center
07:45PM 38.4372 -85.5833 358° North 447 514 34,000  Level Indianapolis Center
07:46PM 38.5608 -85.5825 360° North 445 512 34,000 -240 Level Indianapolis Center
07:47PM 38.6994 -85.5750 North 449 517 33,600 -660 Descending Indianapolis Center
07:48PM 38.8253 -85.5711 North 453 521 32,700 -960 Descending Indianapolis Center
07:49PM 38.9464 -85.5758 358° North 440 506 31,700 -960 Descending Indianapolis Center
07:50PM 39.0675 -85.5900 355° North 438 504 30,800 -900 Descending Indianapolis Center
07:51PM 39.1908 -85.5922 359° North 444 511 29,900 -540 Descending Indianapolis Center
07:52PM 39.3150 -85.5944 359° North 447 514 29,800 -720 Descending Indianapolis Center
07:53PM 39.4358 -85.6136 353° North 443 510 28,500 -1,260 Descending Indianapolis Center
07:54PM 39.5833 -85.6378 353° North 448 516 27,300 -1,080 Descending Indianapolis Center
07:55PM 39.7061 -85.6658 350° North 451 519 26,300 -660 Descending Indianapolis Center
07:56PM 39.8278 -85.6897 351° North 447 514 26,000 -120 Descending Indianapolis Center
07:57PM 39.9475 -85.7139 351° North 441 507 26,100  Climbing Indianapolis Center
07:58PM 40.0700 -85.7139 360° North 444 511 26,000  Descending Indianapolis Center
07:59PM 40.1686 -85.8039 325° Northwest 442 509 26,100 -240 Climbing Indianapolis Center
08:00PM 40.2761 -85.9350 317° Northwest 444 511 25,600 -840 Descending Indianapolis Center
08:01PM 40.3531 -86.0583 309° West 441 507 24,400 -1,260 Descending Indianapolis Center
08:02PM 40.4386 -86.1686 316° Northwest 437 503 23,100 -1,140 Descending Indianapolis Center
08:03PM 40.5442 -86.2431 332° Northwest 433 498 22,100 -540 Descending Indianapolis Center
08:04PM 40.6494 -86.3083 335° Northwest 422 486 22,000 -60 Descending Indianapolis Center
08:05PM 40.7561 -86.3750 335° Northwest 425 489 22,000 -240 Level Indianapolis Center
08:06PM 40.8839 -86.4464 337° Northwest 417 480 21,600 -960 Descending Indianapolis Center
08:07PM 40.9878 -86.4803 346° North 390 449 20,100 -1,440 Descending Indianapolis Center
08:08PM 41.0900 -86.5208 343° North 385 443 18,700 -1,980 Descending Indianapolis Center
08:10PM 41.1861 -86.5758 337° Northwest 378 435 16,100 -2,880 Descending Indianapolis Center
08:10PM 41.2394 -86.5978 343° North 372 428 14,400 -3,420 Descending Chicago Center